Stations météo

réclame
Mon MeteoGroup
Marienleuchte, Allemagne (10067): Température de l'air & dewpoint: 19.02.2018 02:00:00 - 25.02.2018 02:00:00 (CET)Marienleuchte, Allemagne (10067): Vitesse du vent & gusts: 19.02.2018 02:00:00 - 25.02.2018 02:00:00 (CET)Marienleuchte, Allemagne (10067): Direction du vent: 19.02.2018 02:00:00 - 25.02.2018 02:00:00 (CET)Marienleuchte, Allemagne (10067): reduced air pressure: 19.02.2018 02:00:00 - 25.02.2018 02:00:00 (CET)
Date & Time tt [°C] td [°C] ff [km/h] ff [knt] fx [km/h] fx [knt] dd ppp [hPa]
25.02.2018 02:00:00 -1,9 -3,8 36 19 - - NNE 1034,7
25.02.2018 01:00:00 -1,3 -4,0 25 14 - - ENE 1034,8
25.02.2018 00:00:00 -1,3 -4,9 32 18 58 31 ENE 1034,7
24.02.2018 23:00:00 -1,0 -4,2 40 21 58 31 NE 1034,4
24.02.2018 22:00:00 -1,3 -3,9 36 19 - - ENE 1034,4
24.02.2018 21:00:00 -0,9 -4,9 47 25 61 33 ENE 1034,4
24.02.2018 20:00:00 -1,6 -3,1 36 19 61 33 ENE 1034,4
24.02.2018 19:00:00 -0,5 -5,3 40 21 - - ENE 1034,2
24.02.2018 18:00:00 -0,7 -4,6 47 25 58 31 NE 1034,0
24.02.2018 17:00:00 -0,3 -6,0 40 21 54 29 NE 1033,8
24.02.2018 16:00:00 -0,8 -4,4 47 25 - - ENE 1033,8
24.02.2018 15:00:00 -0,3 -4,4 36 19 54 29 ENE 1033,6
24.02.2018 14:00:00 -0,2 -4,2 43 23 61 33 ENE 1033,7
24.02.2018 13:00:00 -0,3 -4,9 47 25 - - NE 1033,6
24.02.2018 12:00:00 -0,3 -4,8 43 23 58 31 ENE 1033,5
24.02.2018 11:00:00 0,1 -5,7 43 23 54 29 ENE 1033,3
24.02.2018 10:00:00 0,1 -6,0 43 23 - - NE 1032,9
24.02.2018 09:00:00 0,2 -5,7 43 23 58 31 NE 1032,5
24.02.2018 08:00:00 0,3 -4,9 50 27 58 31 ENE 1032,1
24.02.2018 07:00:00 0,6 -3,8 43 23 - - NE 1031,5
24.02.2018 06:00:00 0,8 -2,8 32 18 - - NE 1031,0
24.02.2018 05:00:00 0,3 -2,1 32 18 - - NNE 1030,5
24.02.2018 04:00:00 0,7 -2,0 32 18 - - ENE 1030,2
24.02.2018 03:00:00 0,3 -2,3 32 18 - - ENE 1029,9
24.02.2018 02:00:00 0,3 -2,4 29 16 - - ENE 1029,6
24.02.2018 01:00:00 0,2 -2,7 29 16 - - NE 1029,5
24.02.2018 00:00:00 0,3 -3,0 22 12 - - NNE 1029,4
23.02.2018 23:00:00 0,3 -3,4 14 8 - - NNE 1029,2
23.02.2018 22:00:00 -0,1 -4,3 14 8 - - NNE 1029,1
23.02.2018 21:00:00 -0,1 -4,6 14 8 - - NE 1028,7
23.02.2018 20:00:00 -0,1 -4,9 14 8 - - NE 1028,4
23.02.2018 19:00:00 -0,3 -5,5 14 8 - - ENE 1028,5
23.02.2018 18:00:00 -0,8 -5,8 14 8 - - E 1028,0
23.02.2018 17:00:00 -0,4 -5,9 18 10 - - E 1028,1
23.02.2018 16:00:00 0,0 -6,2 25 14 - - E 1028,2
23.02.2018 15:00:00 0,2 -6,0 25 14 - - E 1028,3
23.02.2018 14:00:00 0,8 -5,1 25 14 - - E 1028,4
23.02.2018 13:00:00 0,5 -5,1 25 14 - - E 1028,7
23.02.2018 12:00:00 0,1 -5,2 25 14 - - ENE 1028,9
23.02.2018 11:00:00 0,2 -5,4 29 16 - - E 1028,8
23.02.2018 10:00:00 0,0 -4,4 29 16 - - ENE 1028,6
23.02.2018 09:00:00 0,3 -4,8 25 14 - - E 1028,2
23.02.2018 08:00:00 -0,4 -5,9 25 14 - - ENE 1027,7
23.02.2018 07:00:00 -0,4 -6,2 25 14 - - NE 1027,5
23.02.2018 06:00:00 -0,2 -5,7 25 14 - - ENE 1027,4
23.02.2018 05:00:00 -0,1 -4,9 29 16 - - E 1027,1
23.02.2018 04:00:00 -0,4 -4,3 25 14 - - E 1027,2
23.02.2018 03:00:00 -0,1 -4,1 32 18 - - E 1027,3
23.02.2018 02:00:00 0,3 -3,4 29 16 - - ESE 1027,3
23.02.2018 01:00:00 0,9 -2,3 29 16 - - E 1027,4
23.02.2018 00:00:00 1,0 -2,1 32 18 - - E 1027,4
22.02.2018 23:00:00 1,1 -1,5 36 19 - - E 1027,3
22.02.2018 22:00:00 0,9 -1,4 32 18 - - NNE 1027,0
22.02.2018 21:00:00 0,9 -1,3 29 16 - - NNE 1026,7
22.02.2018 20:00:00 0,6 -1,5 29 16 - - N 1026,9
22.02.2018 19:00:00 0,7 -1,7 36 19 - - NNE 1026,7
22.02.2018 18:00:00 1,1 -2,2 32 18 - - NNE 1026,7
22.02.2018 17:00:00 1,2 -3,5 25 14 - - NE 1026,5
22.02.2018 16:00:00 1,0 -2,6 25 14 - - ENE 1026,6
22.02.2018 15:00:00 1,8 -1,6 22 12 - - ENE 1026,7
22.02.2018 14:00:00 1,4 -1,3 14 8 - - NE 1027,0
22.02.2018 13:00:00 1,3 0,4 18 10 - - ENE 1027,3
22.02.2018 12:00:00 1,1 0,2 18 10 - - NE 1027,3
22.02.2018 11:00:00 0,9 0,0 4 2 - - N 1027,3
22.02.2018 10:00:00 0,6 -0,2 4 2 - - N 1027,1
22.02.2018 09:00:00 0,3 -0,3 7 4 - - SW 1026,9
22.02.2018 08:00:00 0,1 -0,4 7 4 - - WSW 1026,7
22.02.2018 07:00:00 -0,1 -0,5 4 2 - - N 1026,4
22.02.2018 06:00:00 -0,2 -0,6 4 2 - - N 1026,6
22.02.2018 05:00:00 0,0 -0,5 4 2 - - SW 1026,6
22.02.2018 04:00:00 0,0 -0,6 7 4 - - WSW 1026,8
22.02.2018 03:00:00 0,2 -0,9 7 4 - - SW 1026,8
22.02.2018 02:00:00 0,7 -0,7 4 2 - - W 1027,0
22.02.2018 01:00:00 1,1 -0,6 11 6 - - WNW 1027,3
22.02.2018 00:00:00 0,7 -0,7 11 6 - - W 1027,2
21.02.2018 23:00:00 -0,1 -1,3 7 4 - - WSW 1027,3
21.02.2018 22:00:00 -0,2 -1,4 11 6 - - W 1027,4
21.02.2018 21:00:00 -0,5 -1,8 11 6 - - W 1027,2
21.02.2018 20:00:00 -0,2 -2,1 7 4 - - W 1027,1
21.02.2018 19:00:00 0,6 -2,0 7 4 - - W 1026,9
21.02.2018 18:00:00 1,4 -1,9 7 4 - - NW 1026,5
21.02.2018 17:00:00 1,9 -1,4 4 2 - - N 1026,3
21.02.2018 16:00:00 2,5 -2,0 7 4 - - N 1026,5
21.02.2018 15:00:00 2,2 -1,1 14 8 - - N 1026,7
21.02.2018 14:00:00 2,1 -0,9 18 10 - - N 1027,1
21.02.2018 13:00:00 2,6 0,3 14 8 - - N 1027,5
21.02.2018 12:00:00 2,1 -0,1 11 6 - - NNW 1027,3
21.02.2018 11:00:00 2,3 -0,9 7 4 - - N 1027,1
21.02.2018 10:00:00 2,1 -0,6 7 4 - - NNE 1027,1
21.02.2018 09:00:00 1,6 -0,4 11 6 - - NNE 1026,7
21.02.2018 08:00:00 1,4 -0,1 14 8 - - NNE 1026,4
21.02.2018 07:00:00 1,3 -0,9 14 8 - - N 1026,2
21.02.2018 06:00:00 1,4 -0,9 18 10 - - N 1026,4
21.02.2018 05:00:00 1,3 -1,2 11 6 - - NNE 1026,1
21.02.2018 04:00:00 1,6 -0,8 18 10 - - N 1026,4
21.02.2018 03:00:00 1,4 -1,5 18 10 - - N 1026,4
21.02.2018 02:00:00 1,7 -3,2 25 14 - - E 1026,1
21.02.2018 01:00:00 1,7 -3,7 22 12 - - E 1026,3
21.02.2018 00:00:00 1,7 -3,1 29 16 - - E 1025,9
20.02.2018 23:00:00 1,8 -3,8 32 18 - - E 1025,4
20.02.2018 22:00:00 1,9 -3,3 32 18 - - E 1025,1
20.02.2018 21:00:00 1,9 -3,2 36 19 - - E 1024,7
20.02.2018 20:00:00 1,9 -3,0 36 19 50 27 E 1024,4
20.02.2018 19:00:00 2,0 -2,9 40 21 - - E 1023,7
20.02.2018 18:00:00 2,4 -2,6 32 18 - - ENE 1023,2
20.02.2018 17:00:00 2,5 -2,7 32 18 - - ENE 1022,8
20.02.2018 16:00:00 2,6 -2,4 32 18 - - ENE 1022,6
20.02.2018 15:00:00 2,6 -1,4 36 19 - - ENE 1022,3
20.02.2018 14:00:00 2,6 -0,8 32 18 - - ENE 1022,3
20.02.2018 13:00:00 2,8 -1,2 32 18 - - E 1022,2
20.02.2018 12:00:00 3,1 -0,9 32 18 - - E 1022,1
20.02.2018 11:00:00 3,0 -0,6 25 14 - - E 1022,1
20.02.2018 10:00:00 2,2 -0,4 32 18 - - E 1021,8
20.02.2018 09:00:00 1,7 -0,2 32 18 - - E 1021,4
20.02.2018 08:00:00 1,3 -0,2 22 12 - - ESE 1021,0
20.02.2018 07:00:00 1,4 0,4 29 16 - - E 1020,5
20.02.2018 06:00:00 1,7 0,7 18 10 - - E 1020,5
20.02.2018 05:00:00 1,7 0,8 18 10 - - E 1020,2
20.02.2018 04:00:00 1,9 1,0 22 12 - - E 1020,1
20.02.2018 03:00:00 2,4 1,4 18 10 - - E 1019,9
20.02.2018 02:00:00 2,4 1,4 11 6 - - SE 1019,8
20.02.2018 01:00:00 2,6 1,5 14 8 - - ESE 1019,7
20.02.2018 00:00:00 2,6 1,7 14 8 - - ESE 1019,5
19.02.2018 23:00:00 2,4 1,7 14 8 - - ESE 1019,4
19.02.2018 22:00:00 2,5 1,6 11 6 - - ESE 1019,3
19.02.2018 21:00:00 2,7 1,4 14 8 - - SE 1019,4
19.02.2018 20:00:00 2,7 1,5 14 8 - - SE 1019,3
19.02.2018 19:00:00 2,6 1,1 11 6 - - ESE 1019,2
19.02.2018 18:00:00 2,4 0,2 7 4 - - SSE 1019,1
19.02.2018 17:00:00 3,1 0,8 7 4 - - SSE 1019,1
19.02.2018 16:00:00 3,6 0,8 11 6 - - SSE 1019,1
19.02.2018 15:00:00 3,6 0,8 11 6 - - S 1019,3
19.02.2018 14:00:00 4,2 0,6 14 8 - - S 1019,4
19.02.2018 13:00:00 4,5 1,4 11 6 - - SE 1019,5
19.02.2018 12:00:00 4,5 0,0 7 4 - - S 1019,8
19.02.2018 11:00:00 2,6 -1,1 7 4 - - SSW 1020,0
19.02.2018 10:00:00 1,5 -1,4 11 6 - - - 1020,2
19.02.2018 09:00:00 0,8 -1,0 11 6 - - S 1020,3
19.02.2018 08:00:00 0,4 -1,3 11 6 - - S 1020,3
19.02.2018 07:00:00 0,4 -1,4 14 8 - - S 1020,3
19.02.2018 06:00:00 0,6 -1,3 14 8 - - S 1020,4
19.02.2018 05:00:00 0,6 -1,3 14 8 - - S 1020,8
19.02.2018 04:00:00 0,9 -0,9 14 8 - - S 1021,1
19.02.2018 03:00:00 1,1 -0,7 14 8 - - S 1021,6
19.02.2018 02:00:00 1,2 -1,1 14 8 - - S 1022,1

tt = Température de l'air
td = dewpoint
ff = Vitesse du vent
fx = gusts
dd = Direction du vent
ppp = reduced air pressure

stations d'obs. à proximité